createdAt,value
2017-04-22T00:00:02.766Z,80.8
2017-04-22T00:05:03.027Z,79.38
2017-04-22T00:10:02.897Z,79.09
2017-04-22T00:15:03.071Z,77.95
2017-04-22T00:20:02.901Z,77.09
2017-04-22T00:25:03.513Z,76.42
2017-04-22T00:30:03.241Z,75.76
2017-04-22T00:35:02.907Z,74.9
2017-04-22T00:40:03.578Z,74.43
2017-04-22T00:45:03.314Z,73.76
2017-04-22T00:50:03.123Z,78.77
2017-04-22T00:55:02.809Z,82.67
2017-04-22T01:00:03.493Z,84.91
2017-04-22T01:05:03.297Z,85.1
2017-04-22T01:10:02.912Z,85.76
2017-04-22T01:15:03.651Z,85.86
2017-04-22T01:20:03.452Z,85.57
2017-04-22T01:25:03.056Z,85.95
2017-04-22T01:30:02.793Z,85.57
2017-04-22T01:35:03.563Z,85.15
2017-04-22T01:40:03.426Z,85.15
2017-04-22T01:45:03.166Z,84.77
2017-04-22T01:50:02.930Z,84.48
2017-04-22T01:55:03.855Z,84.67
2017-04-22T02:00:03.514Z,84.95
2017-04-22T02:05:03.191Z,88.57
2017-04-22T02:10:02.972Z,89.71
2017-04-22T02:15:03.587Z,90
2017-04-22T02:20:03.355Z,89.9
2017-04-22T02:25:03.145Z,90.56
2017-04-22T02:30:02.877Z,91.33
2017-04-22T02:35:02.766Z,92.32
2017-04-22T02:40:03.597Z,92.13
2017-04-22T02:45:03.493Z,91.94
2017-04-22T02:50:03.381Z,92.04
2017-04-22T02:55:03.047Z,91.28
2017-04-22T03:00:03.624Z,90.52
2017-04-22T03:05:03.354Z,89.86
2017-04-22T03:10:03.175Z,89.09
2017-04-22T03:15:02.798Z,88.53
2017-04-22T03:20:03.500Z,87.57
2017-04-22T03:25:03.176Z,86.58
2017-04-22T03:30:02.760Z,85.91
2017-04-22T03:35:03.389Z,85.16
2017-04-22T03:40:03.121Z,84.59
2017-04-22T03:45:02.867Z,84.49
2017-04-22T03:50:03.492Z,84.49
2017-04-22T03:55:03.384Z,84.11
2017-04-22T04:00:03.207Z,83.73
2017-04-22T04:05:02.911Z,84.11
2017-04-22T04:10:03.733Z,84.21
2017-04-22T04:15:03.372Z,84.21
2017-04-22T04:20:03.082Z,84.11
2017-04-22T04:25:02.791Z,84.4
2017-04-22T04:30:03.636Z,85.72
2017-04-22T04:35:03.401Z,86.11
2017-04-22T04:40:03.071Z,85.91
2017-04-22T04:45:03.763Z,85.25
2017-04-22T04:50:03.484Z,84.11
2017-04-22T04:55:03.120Z,83.73
2017-04-22T05:00:02.858Z,83.07
2017-04-22T05:05:03.716Z,82.73
2017-04-22T05:10:03.393Z,82.35
2017-04-22T05:15:03.161Z,82.07
2017-04-22T05:20:02.870Z,81.68
2017-04-22T05:25:03.635Z,81.4
2017-04-22T05:30:03.282Z,81.68
2017-04-22T05:35:02.858Z,81.49
2017-04-22T05:40:03.655Z,81.59
2017-04-22T05:45:03.486Z,82.35
2017-04-22T05:50:03.226Z,83.06
2017-04-22T05:55:02.823Z,85.72
2017-04-22T06:00:03.571Z,87.05
2017-04-22T06:05:03.413Z,92.32
2017-04-22T06:10:03.190Z,98.41
2017-04-22T06:15:02.890Z,99.99
2017-04-22T06:20:03.613Z,99.99
2017-04-22T06:25:03.252Z,99.99
2017-04-22T06:30:02.835Z,99.99
2017-04-22T06:35:03.508Z,99.99
2017-04-22T06:40:03.312Z,99.99
2017-04-22T06:45:03.024Z,99.99
2017-04-22T06:50:02.794Z,99.99
2017-04-22T06:55:03.529Z,99.99
2017-04-22T07:00:03.284Z,99.99
2017-04-22T07:05:03.108Z,99.99
2017-04-22T07:10:02.821Z,99.99
2017-04-22T07:15:04.008Z,99.99
2017-04-22T07:20:02.774Z,99.99
2017-04-22T07:25:03.352Z,99.99
2017-04-22T07:30:03.077Z,99.99
2017-04-22T07:35:02.839Z,99.99
2017-04-22T07:40:03.555Z,99.99
2017-04-22T07:45:03.135Z,99.99
2017-04-22T07:50:02.987Z,99.99
2017-04-22T07:55:03.773Z,99.99
2017-04-22T08:00:03.478Z,99.99
2017-04-22T08:05:03.196Z,99.99
2017-04-22T08:10:02.864Z,99.99
2017-04-22T08:15:03.537Z,99.99
2017-04-22T08:20:03.157Z,99.99
2017-04-22T08:25:02.850Z,99.99
2017-04-22T08:30:03.644Z,99.99
2017-04-22T08:35:03.411Z,99.99
2017-04-22T08:40:03.219Z,99.99
2017-04-22T08:45:03.018Z,99.99
2017-04-22T08:50:02.915Z,99.99
2017-04-22T08:55:03.571Z,99.99
2017-04-22T09:00:03.227Z,99.99
2017-04-22T09:05:02.916Z,99.99
2017-04-22T09:10:02.784Z,99.99
2017-04-22T09:15:03.501Z,95.51
2017-04-22T09:20:03.173Z,91.16
2017-04-22T09:25:03.104Z,86.8
2017-04-22T09:30:03.122Z,79.08
2017-04-22T09:35:03.143Z,74.82
2017-04-22T09:40:03.263Z,74.95
2017-04-22T09:45:03.110Z,71.59
2017-04-22T09:50:02.965Z,71.61
2017-04-22T09:55:02.924Z,70.48
2017-04-22T10:00:02.790Z,70.79
2017-04-22T10:05:03.896Z,70.5
2017-04-22T10:10:02.789Z,69.32
2017-04-22T10:15:02.803Z,70.78
2017-04-22T10:20:03.693Z,71.07
2017-04-22T10:25:02.816Z,70.27
2017-04-22T10:30:03.200Z,69.35
2017-04-22T10:35:02.920Z,69.09
2017-04-22T10:40:03.512Z,67.72
2017-04-22T10:45:03.665Z,65.52
2017-04-22T10:50:03.198Z,67.6
2017-04-22T10:55:03.747Z,68.27
2017-04-22T11:00:03.578Z,67.6
2017-04-22T11:05:02.937Z,68.33
2017-04-22T11:10:03.297Z,67.47
2017-04-22T11:15:03.279Z,68.05
2017-04-22T11:20:03.443Z,68.21
2017-04-22T11:25:03.047Z,67.79
2017-04-22T11:30:03.197Z,69.48
2017-04-22T11:35:03.533Z,68.87
2017-04-22T11:40:03.083Z,69.48
2017-04-22T11:45:02.938Z,68.17
2017-04-22T11:50:02.805Z,66.61
2017-04-22T11:55:03.610Z,63.38
2017-04-22T12:00:03.555Z,63.79
2017-04-22T12:05:03.077Z,60.38
2017-04-22T12:10:03.001Z,61.82
2017-04-22T12:15:03.341Z,63.51
2017-04-22T12:20:03.562Z,64.53
2017-04-22T12:25:03.326Z,65.26
2017-04-22T12:30:03.671Z,65.9
2017-04-22T12:35:02.954Z,66.8
2017-04-22T12:40:03.510Z,66.64
2017-04-22T12:45:03.317Z,65.05
2017-04-22T12:50:02.810Z,64.09
2017-04-22T12:55:03.004Z,66.03
2017-04-22T13:00:03.037Z,66.8
2017-04-22T13:05:03.115Z,67.14
2017-04-22T13:10:03.687Z,68.45
2017-04-22T13:15:03.579Z,67.94
2017-04-22T13:20:03.491Z,68.41
2017-04-22T13:25:02.884Z,68.51
2017-04-22T13:30:03.445Z,68.23
2017-04-22T13:35:03.469Z,68
2017-04-22T13:40:03.530Z,68.73
2017-04-22T13:45:02.913Z,69.59
2017-04-22T13:50:03.320Z,69.21
2017-04-22T13:55:03.183Z,69.78
2017-04-22T14:00:03.756Z,70.79
2017-04-22T14:05:03.661Z,70.98
2017-04-22T14:10:03.261Z,71.46
2017-04-22T14:15:03.486Z,71.56
2017-04-22T14:20:02.953Z,71.27
2017-04-22T14:25:03.477Z,71.43
2017-04-22T14:30:02.882Z,70.98
2017-04-22T14:35:03.165Z,71.08
2017-04-22T14:40:03.568Z,70.86
2017-04-22T14:45:02.770Z,71.46
2017-04-22T14:50:02.951Z,71.84
2017-04-22T14:55:03.302Z,71.75
2017-04-22T15:00:04.317Z,71.46
2017-04-22T15:05:04.115Z,72.03
2017-04-22T15:10:03.158Z,72.23
2017-04-22T15:15:03.452Z,72.8
2017-04-22T15:20:09.454Z,72.45
2017-04-22T15:25:03.575Z,70.39
2017-04-22T15:30:03.588Z,69.82
2017-04-22T15:35:05.745Z,69.15
2017-04-22T15:40:05.603Z,68.73
2017-04-22T15:45:04.414Z,69.08
2017-04-22T15:50:03.710Z,69.46
2017-04-22T15:55:03.952Z,69.84
2017-04-22T16:00:03.487Z,70.03
2017-04-22T16:05:03.619Z,70
2017-04-22T16:10:08.299Z,71.14
2017-04-22T16:15:04.362Z,71.62
2017-04-22T16:20:04.247Z,72.38
2017-04-22T16:25:03.098Z,72.86
2017-04-22T16:30:05.726Z,73.33
2017-04-22T16:35:03.847Z,73.24
2017-04-22T16:40:04.735Z,72.38
2017-04-22T16:45:03.664Z,72.16
2017-04-22T16:50:04.853Z,73.26
2017-04-22T16:55:04.197Z,73.83
2017-04-22T17:00:03.980Z,74.02
2017-04-22T17:05:03.778Z,74.84
2017-04-22T17:10:08.265Z,75.51
2017-04-22T17:15:04.390Z,76.84
2017-04-22T17:20:05.069Z,77.7
2017-04-22T17:25:03.597Z,78.37
2017-04-22T17:30:07.997Z,78.99
2017-04-22T17:35:04.149Z,79.19
2017-04-22T17:40:03.963Z,79.47
2017-04-22T17:45:04.199Z,79.94
2017-04-22T17:50:09.577Z,80.13
2017-04-22T17:55:04.713Z,79.85
2017-04-22T18:00:04.264Z,80.23
2017-04-22T18:05:05.644Z,80.38
2017-04-22T18:10:05.269Z,80.57
2017-04-22T18:15:05.426Z,81.05
2017-04-22T18:20:06.389Z,81.52
2017-04-22T18:25:04.636Z,81.48
2017-04-22T18:30:03.141Z,82.15
2017-04-22T18:35:07.788Z,82.71
2017-04-22T18:40:10.990Z,83.67
2017-04-22T18:45:07.155Z,84.39
2017-04-22T18:55:06.423Z,86.29
2017-04-22T19:00:08.525Z,87.24
2017-04-22T19:05:08.512Z,88.76
2017-04-22T19:10:05.118Z,89.9
2017-04-22T19:15:13.420Z,90.85
2017-04-22T19:20:08.909Z,91.71
2017-04-22T19:25:08.400Z,92.75
2017-04-22T19:30:05.026Z,92.8
2017-04-22T19:35:07.288Z,93.65
2017-04-22T19:40:05.620Z,94.79
2017-04-22T19:45:03.742Z,96.22
2017-04-22T19:50:06.794Z,96.88
2017-04-22T19:55:08.000Z,97.45
2017-04-22T20:00:08.896Z,98.79
2017-04-22T20:05:05.860Z,99.99
2017-04-22T20:10:11.526Z,99.99
2017-04-22T20:15:06.507Z,99.99
2017-04-22T20:20:06.504Z,99.99
2017-04-22T20:30:07.996Z,99.99
2017-04-22T20:35:08.551Z,99.99
2017-04-22T20:40:07.526Z,99.99
2017-04-22T20:45:04.626Z,99.99
2017-04-22T20:50:08.571Z,99.99
2017-04-22T20:55:04.440Z,99.99
2017-04-22T21:00:07.999Z,99.99
2017-04-22T21:05:02.957Z,99.99
2017-04-22T21:10:03.747Z,99.99
2017-04-22T21:15:03.369Z,99.99
2017-04-22T21:20:03.056Z,99.99
2017-04-22T21:25:02.771Z,99.99
2017-04-22T21:30:03.398Z,99.99
2017-04-22T21:35:02.980Z,99.99
2017-04-22T21:40:03.912Z,99.99
2017-04-22T21:45:03.625Z,99.99
2017-04-22T21:50:03.281Z,99.99
2017-04-22T21:55:02.869Z,99.99
2017-04-22T22:00:03.639Z,99.99
2017-04-22T22:05:03.506Z,99.99
2017-04-22T22:10:03.158Z,99.99
2017-04-22T22:15:02.902Z,99.99
2017-04-22T22:20:03.513Z,99.99
2017-04-22T22:25:03.086Z,99.99
2017-04-22T22:30:02.747Z,99.99
2017-04-22T22:35:03.473Z,99.99
2017-04-22T22:40:03.161Z,99.99
2017-04-22T22:45:03.747Z,99.99
2017-04-22T22:51:06.582Z,99.99
2017-04-22T22:55:03.219Z,99.99
2017-04-22T23:00:02.971Z,99.99
2017-04-22T23:05:03.662Z,99.99
2017-04-22T23:10:03.310Z,99.99
2017-04-22T23:15:02.987Z,99.99
2017-04-22T23:20:02.783Z,99.99
2017-04-22T23:25:03.326Z,99.99
2017-04-22T23:30:02.881Z,99.99
2017-04-22T23:35:03.616Z,99.99
2017-04-22T23:40:03.401Z,99.99
2017-04-22T23:45:03.006Z,99.99
2017-04-22T23:50:03.729Z,99.99
2017-04-22T23:55:03.322Z,99.99
